Time;durP1;ratioP1;P1;durP2;ratioP2;P2;SDS_P1;SDS_P2;PMS_P1;PMS_P2;Temp;Humidity;BMP_temperature;BMP_pressure;BME280_temperature;BME280_humidity;BME280_pressure;Samples;Min_cycle;Max_cycle;Signal;HPM_P1;HPM_P2
2022/02/03 00:00:16;;;;;;;14.17;9.17;;;;;;;0.49;87.83;98707.38;2290524;78;21043;-83
2022/02/03 00:06:18;;;;;;;13.73;9.93;;;;;;;0.45;87.33;98715.74;2268108;78;21012;-85
2022/02/03 00:10:29;;;;;;;14.67;10.83;;;;;;;0.42;87.51;98715.59;2291650;77;21040;-82
2022/02/03 00:23:26;;;;;;;16.40;9.27;;;;;;;0.39;87.53;98750.11;2291732;77;21318;-83
2022/02/03 00:25:31;;;;;;;18.20;11.97;;;;;;;0.39;87.38;98755.64;2288332;77;21043;-83
2022/02/03 00:28:31;;;;;;;18.63;10.53;;;;;;;0.38;87.15;98759.90;2291520;77;20980;-84
2022/02/03 00:31:43;;;;;;;17.30;10.87;;;;;;;0.36;86.85;98770.50;2291709;78;20923;-83
2022/02/03 00:34:49;;;;;;;16.57;10.07;;;;;;;0.35;86.47;98777.72;2290395;78;20977;-84
2022/02/03 00:50:56;;;;;;;14.03;9.80;;;;;;;0.32;86.06;98799.39;2291051;78;21008;-83
2022/02/03 00:53:57;;;;;;;12.73;9.30;;;;;;;0.29;85.22;98809.50;2291384;78;21031;-84
2022/02/03 00:56:57;;;;;;;17.50;10.33;;;;;;;0.29;85.61;98810.78;2292219;78;20917;-83
2022/02/03 00:59:58;;;;;;;19.17;10.50;;;;;;;0.29;85.82;98810.38;2292271;78;20933;-83
2022/02/03 01:02:58;;;;;;;16.30;9.70;;;;;;;0.29;85.79;98812.06;2292598;78;21229;-84
2022/02/03 01:06:00;;;;;;;14.73;8.87;;;;;;;0.28;85.69;98816.72;2292705;78;20967;-83
2022/02/03 01:09:01;;;;;;;13.90;9.30;;;;;;;0.24;85.46;98818.66;2297389;77;21060;-83
2022/02/03 01:44:42;;;;;;;13.50;9.30;;;;;;;0.17;84.83;98850.83;2250781;78;21380;-83
2022/02/03 01:47:52;;;;;;;16.73;9.60;;;;;;;0.18;84.83;98851.30;2247718;79;20968;-83
2022/02/03 01:53:59;;;;;;;14.93;8.70;;;;;;;0.24;84.85;98855.48;2249209;78;20948;-81
2022/02/03 01:56:59;;;;;;;17.63;9.47;;;;;;;0.68;90.88;98862.41;2249258;78;21327;-81
2022/02/03 02:00:00;;;;;;;14.20;9.13;;;;;;;1.65;92.16;98867.22;2248489;79;20931;-81
2022/02/03 02:03:01;;;;;;;17.63;9.40;;;;;;;2.49;86.02;98860.77;2249695;79;21003;-82
2022/02/03 02:06:01;;;;;;;14.60;9.77;;;;;;;2.27;81.84;98862.80;2250266;79;20956;-82
2022/02/03 02:09:03;;;;;;;15.70;9.77;;;;;;;1.81;81.50;98873.59;2250218;78;20979;-82
2022/02/03 02:12:19;;;;;;;15.40;9.63;;;;;;;1.54;81.40;98870.98;2250067;78;20928;-82
2022/02/03 02:38:12;;;;;;;23.87;12.47;;;;;;;0.86;82.98;98910.47;2292546;78;21025;-83
2022/02/03 02:44:22;;;;;;;115.57;28.07;;;;;;;0.87;83.18;98902.39;2269667;78;20901;-82
2022/02/03 02:47:22;;;;;;;73.30;22.73;;;;;;;0.89;83.20;98910.66;2292876;78;20925;-82
2022/02/03 02:50:41;;;;;;;73.00;19.80;;;;;;;0.90;83.37;98908.98;2292674;78;21079;-82
2022/02/03 02:53:46;;;;;;;223.80;43.47;;;;;;;0.91;83.53;98918.45;2291311;78;20996;-83
2022/02/03 02:56:49;;;;;;;231.67;43.93;;;;;;;0.86;83.59;98920.75;2289249;77;21047;-82
2022/02/03 03:29:26;;;;;;;9.07;6.33;;;;;;;0.25;88.89;98984.32;2290469;78;20992;-85
2022/02/03 03:38:37;;;;;;;11.63;7.17;;;;;;;-0.03;88.97;99000.27;2268568;78;20976;-83
2022/02/03 03:41:37;;;;;;;12.53;7.60;;;;;;;-0.08;88.79;99005.14;2291477;78;20954;-83
2022/02/03 03:44:38;;;;;;;21.67;9.10;;;;;;;-0.11;89.10;99010.10;2291447;78;20991;-83
2022/02/03 03:47:38;;;;;;;15.00;9.00;;;;;;;-0.13;88.85;99010.81;2290685;78;21022;-83
2022/02/03 03:50:39;;;;;;;14.87;8.70;;;;;;;-0.12;88.58;99017.71;2289852;78;20978;-83
2022/02/03 03:53:49;;;;;;;12.53;8.60;;;;;;;-0.12;88.40;99021.56;2290618;78;20991;-82
2022/02/03 03:57:06;;;;;;;11.67;9.67;;;;;;;-0.11;88.67;99021.64;2291202;77;20908;-84
2022/02/03 04:00:34;;;;;;;11.93;8.60;;;;;;;-0.12;88.32;99031.42;2290342;78;20980;-84
2022/02/03 04:30:20;;;;;;;15.07;9.83;;;;;;;-0.27;88.35;99053.64;2281510;78;21006;-83
2022/02/03 04:33:12;;;;;;;13.03;9.33;;;;;;;-0.25;88.37;99061.43;2277908;78;21033;-83
2022/02/03 04:53:13;;;;;;;9.60;8.43;;;;;;;0.05;87.65;99057.19;2279916;78;21004;-85
2022/02/03 04:55:35;;;;;;;9.60;8.60;;;;;;;-0.01;87.13;99061.54;2258173;78;21372;-84
2022/02/03 05:01:52;;;;;;;9.50;8.47;;;;;;;-0.12;87.20;99073.77;2259594;78;21016;-84
2022/02/03 05:04:53;;;;;;;13.40;9.27;;;;;;;-0.13;87.18;99077.52;2276161;78;20988;-84
2022/02/03 05:08:08;;;;;;;12.23;8.23;;;;;;;-0.18;87.16;99077.27;2277259;78;20965;-83
2022/02/03 05:14:51;;;;;;;10.13;7.90;;;;;;;-0.25;87.20;99075.14;2278731;77;21088;-84
2022/02/03 05:17:52;;;;;;;11.17;7.77;;;;;;;-0.29;87.09;99083.86;2254788;78;21081;-84
2022/02/03 05:24:23;;;;;;;10.53;7.60;;;;;;;-0.33;87.20;99095.62;2225241;79;21051;-83
2022/02/03 05:43:54;;;;;;;15.37;9.67;;;;;;;-0.36;86.61;99122.38;2246960;78;21058;-83
2022/02/03 05:50:25;;;;;;;13.18;9.43;;;;;;;-0.39;86.66;99132.05;2224874;79;21015;-84
2022/02/03 05:54:41;;;;;;;24.18;13.85;;;;;;;-0.42;86.45;99129.70;2245136;79;21399;-81
2022/02/03 06:12:56;;;;;;;25.53;12.27;;;;;;;-0.87;86.06;99150.47;2248018;78;22046;-84
2022/02/03 06:16:07;;;;;;;24.77;11.63;;;;;;;-0.89;85.91;99144.77;2247396;77;21059;-84
2022/02/03 06:22:22;;;;;;;21.93;11.10;;;;;;;-0.95;85.77;99152.97;2258520;78;21057;-83
2022/02/03 06:28:04;;;;;;;22.00;10.83;;;;;;;-1.04;85.65;99150.72;2279323;78;20985;-83
2022/02/03 06:31:04;;;;;;;16.03;9.83;;;;;;;-1.03;85.76;99150.33;2280157;78;20965;-83
2022/02/03 06:34:05;;;;;;;19.13;10.30;;;;;;;-1.00;85.67;99147.95;2278681;77;20965;-82
2022/02/03 06:37:05;;;;;;;13.60;10.10;;;;;;;-0.96;85.66;99155.03;2278539;78;20997;-82
2022/02/03 06:40:06;;;;;;;15.77;10.33;;;;;;;-0.93;85.43;99156.50;2279449;78;21476;-83
2022/02/03 06:43:06;;;;;;;20.80;10.90;;;;;;;-0.89;85.28;99158.46;2280185;78;20966;-82
2022/02/03 06:46:07;;;;;;;25.40;12.67;;;;;;;-0.85;85.05;99168.14;2280464;78;20996;-84
2022/02/03 06:49:25;;;;;;;24.77;13.40;;;;;;;-0.83;84.82;99172.97;2281722;78;20969;-83
2022/02/03 06:52:26;;;;;;;29.17;16.10;;;;;;;-0.81;84.68;99188.05;2278283;78;21424;-83
2022/02/03 06:58:37;;;;;;;36.57;16.70;;;;;;;-0.69;84.74;99200.73;2259210;78;21017;-82
2022/02/03 07:01:37;;;;;;;36.13;18.60;;;;;;;-0.66;84.46;99212.05;2278508;78;21002;-82
2022/02/03 07:04:41;;;;;;;39.97;18.67;;;;;;;-0.61;84.31;99214.02;2278722;78;21010;-79
2022/02/03 07:07:41;;;;;;;49.00;22.33;;;;;;;-0.53;84.02;99211.52;2278691;78;21022;-83
2022/02/03 07:10:42;;;;;;;51.95;20.25;;;;;;;-0.43;84.13;99206.16;2279478;78;20953;-82
2022/02/03 07:13:42;;;;;;;45.57;17.70;;;;;;;-0.32;83.62;99212.81;2279134;78;20954;-81
2022/02/03 07:16:47;;;;;;;40.33;15.77;;;;;;;-0.21;82.91;99209.21;2270853;77;21336;-81
2022/02/03 07:19:48;;;;;;;35.87;14.13;;;;;;;-0.14;82.78;99216.87;2247720;79;21055;-84
2022/02/03 07:22:48;;;;;;;43.53;19.47;;;;;;;-0.13;82.12;99222.50;2247656;79;21063;-85
2022/02/03 07:25:48;;;;;;;51.30;19.03;;;;;;;-0.11;82.62;99224.36;2247577;79;20974;-83
2022/02/03 07:28:48;;;;;;;30.87;14.50;;;;;;;-0.09;81.62;99222.77;2247831;79;21018;-83
2022/02/03 07:31:49;;;;;;;22.40;10.73;;;;;;;-0.10;81.61;99227.41;2247770;79;20975;-83
2022/02/03 07:34:51;;;;;;;15.10;8.00;;;;;;;0.00;80.59;99228.88;2248144;79;20975;-83
2022/02/03 07:37:52;;;;;;;10.47;7.40;;;;;;;0.06;80.68;99222.82;2247952;79;21490;-83
2022/02/03 07:40:53;;;;;;;9.60;6.70;;;;;;;0.18;80.30;99228.67;2246758;79;21014;-81
2022/02/03 07:43:53;;;;;;;9.13;6.27;;;;;;;0.23;78.29;99227.66;2247124;78;20979;-81
2022/02/03 07:46:54;;;;;;;9.17;6.07;;;;;;;0.26;78.02;99224.87;2247667;79;20999;-81
2022/02/03 07:49:55;;;;;;;11.80;6.67;;;;;;;0.28;78.50;99220.70;2248313;78;21034;-83
2022/02/03 07:52:55;;;;;;;10.90;6.23;;;;;;;0.37;77.87;99222.03;2248169;78;20952;-83
2022/02/03 07:55:56;;;;;;;13.07;8.27;;;;;;;0.46;77.94;99233.72;2248398;78;21045;-83
2022/02/03 07:58:56;;;;;;;22.67;12.20;;;;;;;0.79;77.83;99234.74;2247015;78;20955;-82
2022/02/03 08:01:57;;;;;;;43.83;16.57;;;;;;;1.04;77.44;99231.00;2246508;79;20991;-84
2022/02/03 08:05:00;;;;;;;62.03;22.77;;;;;;;1.30;76.87;99234.99;2245807;78;21007;-84
2022/02/03 08:08:14;;;;;;;52.40;20.87;;;;;;;1.57;76.35;99231.33;2245916;79;21019;-84
2022/02/03 08:11:12;;;;;;;56.93;22.90;;;;;;;1.77;74.86;99226.86;2245064;79;21011;-83
2022/02/03 08:14:20;;;;;;;47.53;19.73;;;;;;;1.73;75.37;99231.33;2246309;79;21256;-84
2022/02/03 08:17:22;;;;;;;44.07;18.23;;;;;;;1.64;75.69;99226.98;2257404;77;20985;-79
2022/02/03 08:20:20;;;;;;;37.80;15.53;;;;;;;1.78;76.09;99231.20;2278164;78;21162;-82
2022/02/03 08:26:43;;;;;;;35.47;17.60;;;;;;;;;;2257949;78;21468;-85
2022/02/03 08:30:03;;;;;;;29.13;15.23;;;;;;;2.31;74.80;99218.89;2275538;78;21012;-84
2022/02/03 08:32:43;;;;;;;27.43;14.17;;;;;;;2.27;73.18;99216.97;2275931;78;21310;-84
2022/02/03 08:35:44;;;;;;;40.27;18.80;;;;;;;2.07;73.38;99227.55;2279463;77;21020;-84
2022/02/03 08:41:43;;;;;;;18.50;8.83;;;;;;;1.88;73.42;99211.97;2259324;78;21002;-84
2022/02/03 08:44:44;;;;;;;31.20;13.53;;;;;;;2.16;73.05;99212.57;2278975;77;21028;-84
2022/02/03 08:47:45;;;;;;;29.97;14.80;;;;;;;2.35;71.84;99216.06;2279479;78;20938;-83
2022/02/03 08:50:45;;;;;;;34.40;15.27;;;;;;;2.45;71.18;99220.47;2279216;78;20982;-84
2022/02/03 08:53:53;;;;;;;32.93;16.23;;;;;;;2.58;71.96;99219.38;2280142;78;20910;-85
2022/02/03 08:56:56;;;;;;;29.60;14.43;;;;;;;2.73;70.98;99223.14;2278498;77;21038;-85
2022/02/03 09:00:31;;;;;;;34.60;15.50;;;;;;;2.76;70.38;99225.86;2278436;78;21393;-83
2022/02/03 09:39:47;;;;;;;19.13;7.00;;;;;;;2.93;69.51;99222.40;2266726;78;20964;-82
2022/02/03 09:59:04;;;;;;;14.73;6.73;;;;;;;4.15;68.15;99190.52;2288233;78;20986;-83
2022/02/03 10:01:55;;;;;;;16.67;7.50;;;;;;;4.19;66.96;99192.42;2285772;78;21062;-85
2022/02/03 10:05:11;;;;;;;20.63;8.37;;;;;;;4.12;67.60;99182.64;2289025;77;21912;-83
2022/02/03 10:07:57;;;;;;;16.20;7.63;;;;;;;4.18;67.84;99167.40;2286328;77;21089;-84
2022/02/03 10:10:58;;;;;;;23.07;9.83;;;;;;;4.12;68.12;99168.02;2289501;78;20959;-84
2022/02/03 10:13:58;;;;;;;28.17;9.10;;;;;;;3.96;67.22;99169.89;2289276;78;20955;-85
2022/02/03 10:16:59;;;;;;;20.33;8.77;;;;;;;3.87;68.11;99161.75;2287922;78;21147;-83
2022/02/03 10:19:59;;;;;;;16.67;8.07;;;;;;;3.84;68.23;99159.51;2278460;78;20992;-82
2022/02/03 10:23:02;;;;;;;17.87;7.30;;;;;;;3.87;69.37;99156.58;2277657;77;21016;-83
2022/02/03 10:26:02;;;;;;;10.77;6.67;;;;;;;3.77;68.46;99156.59;2257499;78;21024;-82
2022/02/03 10:29:03;;;;;;;10.70;6.63;;;;;;;3.62;68.76;99161.97;2278171;78;20985;-83
2022/02/03 10:32:03;;;;;;;19.93;8.57;;;;;;;3.86;69.49;99152.23;2279140;77;20977;-83
2022/02/03 10:35:04;;;;;;;22.40;8.00;;;;;;;4.03;68.82;99151.25;2278741;77;20918;-83
2022/02/03 10:39:04;;;;;;;18.47;9.17;;;;;;;4.08;68.69;99144.17;2279402;78;20937;-83
2022/02/03 10:41:39;;;;;;;22.23;10.07;;;;;;;4.12;68.98;99140.02;2276375;78;21412;-83
2022/02/03 10:44:52;;;;;;;23.47;9.03;;;;;;;4.18;69.07;99135.10;2275120;78;21061;-82
2022/02/03 10:47:50;;;;;;;18.57;8.70;;;;;;;4.31;68.57;99130.91;2274576;78;21069;-84
2022/02/03 10:54:10;;;;;;;20.37;9.43;;;;;;;4.30;68.12;99127.86;2257672;78;20961;-83
2022/02/03 10:57:13;;;;;;;17.67;9.53;;;;;;;4.27;68.56;99123.85;2275350;78;21037;-83
2022/02/03 11:06:25;;;;;;;18.13;9.63;;;;;;;4.67;68.69;99121.61;2258082;78;21004;-83
2022/02/03 11:09:23;;;;;;;19.17;9.83;;;;;;;4.92;67.79;99116.56;2276343;78;21013;-82
2022/02/03 11:12:23;;;;;;;21.97;10.87;;;;;;;4.96;67.17;99123.61;2276975;78;20984;-84
2022/02/03 11:15:24;;;;;;;33.53;11.50;;;;;;;4.87;67.35;99119.38;2277534;78;21032;-84
2022/02/03 11:18:27;;;;;;;22.07;11.20;;;;;;;4.95;67.98;99114.09;2262106;78;21066;-85
2022/02/03 11:21:28;;;;;;;31.87;15.90;;;;;;;5.08;67.91;99113.73;2245833;78;21098;-82
2022/02/03 11:24:32;;;;;;;61.17;24.10;;;;;;;5.19;67.00;99111.95;2245361;79;21700;-84
2022/02/03 11:27:50;;;;;;;35.53;18.93;;;;;;;5.13;66.09;99112.61;2245844;79;21431;-84
2022/02/03 11:37:46;;;;;;;26.47;12.10;;;;;;;4.79;66.43;99094.93;2245570;79;20964;-85
2022/02/03 11:49:54;;;;;;;48.37;19.13;;;;;;;4.90;67.74;99096.63;2224730;79;21079;-85
2022/02/03 11:56:23;;;;;;;42.67;16.60;;;;;;;5.26;67.81;99074.74;2224746;79;20935;-83
2022/02/03 12:02:20;;;;;;;42.87;17.77;;;;;;;5.54;66.59;99086.96;2224712;79;20947;-82
2022/02/03 12:05:42;;;;;;;26.70;10.43;;;;;;;5.46;66.40;99085.81;2245931;79;20991;-80
2022/02/03 12:10:20;;;;;;;19.33;9.43;;;;;;;5.30;66.58;99086.97;2243191;79;21359;-83
2022/02/03 12:12:05;;;;;;;18.43;8.30;;;;;;;5.30;66.58;99086.97;2242633;79;21050;-82
2022/02/03 12:18:32;;;;;;;23.50;12.57;;;;;;;5.09;67.33;99084.44;2245521;77;21027;-82
2022/02/03 12:21:22;;;;;;;61.87;35.07;;;;;;;5.07;67.54;99079.63;2243348;79;21034;-84
2022/02/03 12:24:30;;;;;;;25.90;11.83;;;;;;;5.04;67.57;99067.86;2245697;79;21004;-83
2022/02/03 12:30:35;;;;;;;27.07;13.70;;;;;;;5.11;67.40;99059.91;2224113;79;21378;-84
2022/02/03 12:40:01;;;;;;;26.83;11.90;;;;;;;5.13;67.29;99073.38;2245921;78;21171;-84
2022/02/03 12:43:01;;;;;;;25.43;11.07;;;;;;;5.04;67.72;99069.57;2245256;79;21047;-83
2022/02/03 12:45:58;;;;;;;26.77;11.23;;;;;;;4.97;67.65;99072.75;2246883;79;21024;-82
2022/02/03 12:48:58;;;;;;;27.50;11.13;;;;;;;4.90;67.71;99072.94;2246098;79;20920;-82
2022/02/03 12:51:59;;;;;;;34.43;14.77;;;;;;;4.82;68.22;99067.89;2245519;79;21039;-83
2022/02/03 12:54:59;;;;;;;27.03;13.57;;;;;;;4.86;68.11;99065.01;2245848;79;20936;-84
2022/02/03 12:58:00;;;;;;;27.60;14.00;;;;;;;4.84;68.27;99057.19;2245419;79;20943;-83
2022/02/03 13:01:07;;;;;;;17.40;9.77;;;;;;;4.86;68.60;99064.59;2245573;79;20959;-82
2022/02/03 13:04:09;;;;;;;23.47;12.67;;;;;;;4.75;68.06;99065.89;2245091;79;21398;-82
2022/02/03 13:07:08;;;;;;;22.07;10.73;;;;;;;4.59;68.51;99076.05;2244700;79;21059;-79
2022/02/03 13:10:09;;;;;;;44.20;14.03;;;;;;;4.53;68.85;99069.77;2245696;78;20968;-80
2022/02/03 13:13:09;;;;;;;23.57;9.83;;;;;;;4.45;69.30;99064.30;2245473;78;21380;-79
2022/02/03 13:16:10;;;;;;;23.30;10.07;;;;;;;4.42;69.33;99059.89;2245458;78;20955;-80
2022/02/03 13:19:18;;;;;;;29.03;9.87;;;;;;;4.35;69.46;99060.88;2267884;77;21025;-80
2022/02/03 13:22:33;;;;;;;15.87;8.73;;;;;;;4.27;69.49;99055.37;2286386;77;20992;-80
2022/02/03 13:25:52;;;;;;;18.52;9.15;;;;;;;4.25;69.70;99046.68;2286329;77;21967;-77
2022/02/03 13:28:51;;;;;;;35.73;17.57;;;;;;;4.32;70.19;99049.09;2283325;77;20998;-78
2022/02/03 13:31:55;;;;;;;22.77;10.33;;;;;;;4.42;70.09;99041.80;2284231;77;21006;-78
2022/02/03 13:35:08;;;;;;;22.63;10.20;;;;;;;4.48;69.88;99042.03;2283553;77;21050;-78
2022/02/03 13:38:05;;;;;;;21.50;10.83;;;;;;;4.46;70.12;99042.38;2282878;77;21423;-78
2022/02/03 13:41:03;;;;;;;24.40;11.67;;;;;;;4.50;70.37;99042.50;2263906;78;20995;-81
2022/02/03 13:44:04;;;;;;;28.40;11.40;;;;;;;4.43;69.82;99040.97;2287727;78;21018;-78
2022/02/03 13:47:04;;;;;;;27.80;10.53;;;;;;;4.33;70.02;99037.94;2287240;78;20983;-78
2022/02/03 13:50:05;;;;;;;25.97;11.40;;;;;;;4.27;70.37;99037.28;2288399;78;20972;-78
2022/02/03 13:53:10;;;;;;;27.80;12.70;;;;;;;4.42;71.16;99035.33;2288761;78;21077;-78
2022/02/03 14:22:17;;;;;;;25.53;11.07;;;;;;;4.02;70.74;99031.55;2218120;79;21041;-86
2022/02/03 14:28:36;;;;;;;21.53;11.00;;;;;;;3.91;70.95;99030.64;2240931;78;21026;-83
2022/02/03 14:31:37;;;;;;;29.80;12.77;;;;;;;3.82;71.28;99037.19;2240424;79;21549;-85
2022/02/03 14:34:38;;;;;;;30.40;13.67;;;;;;;3.84;71.38;99030.80;2239961;78;21045;-85
2022/02/03 14:41:10;;;;;;;35.90;17.07;;;;;;;3.71;71.53;99029.83;2218277;79;20954;-86
2022/02/03 14:43:53;;;;;;;35.73;16.27;;;;;;;3.63;71.50;99029.50;2237709;79;21485;-84
2022/02/03 14:46:53;;;;;;;31.17;15.43;;;;;;;3.56;71.66;99033.05;2240547;78;21380;-84
2022/02/03 14:49:54;;;;;;;31.07;15.90;;;;;;;3.48;71.91;99032.73;2242281;79;20978;-84
2022/02/03 14:52:58;;;;;;;31.63;15.87;;;;;;;3.42;72.13;99030.73;2242194;79;20971;-84
2022/02/03 14:59:16;;;;;;;38.60;17.50;;;;;;;3.36;72.57;99030.48;2242169;78;21050;-84
2022/02/03 15:02:17;;;;;;;34.73;17.67;;;;;;;3.28;72.75;99029.27;2241132;78;20975;-85
2022/02/03 15:05:36;;;;;;;38.00;19.53;;;;;;;3.25;72.97;99026.95;2241721;79;20982;-85
2022/02/03 15:14:51;;;;;;;37.60;18.90;;;;;;;3.05;73.60;99011.50;2218988;79;21034;-85
2022/02/03 15:17:52;;;;;;;35.83;18.47;;;;;;;2.97;73.85;99005.13;2241673;78;20932;-85
2022/02/03 15:20:52;;;;;;;28.07;16.90;;;;;;;2.92;74.20;99004.03;2278406;78;20978;-85
2022/02/03 15:23:53;;;;;;;35.93;16.77;;;;;;;2.83;74.27;98996.78;2281588;78;20981;-84
2022/02/03 15:26:55;;;;;;;34.43;17.70;;;;;;;2.73;74.46;99001.05;2280910;78;21017;-85
2022/02/03 15:30:01;;;;;;;27.57;15.63;;;;;;;2.63;74.55;98997.58;2260019;78;21065;-86
2022/02/03 15:32:59;;;;;;;33.53;18.70;;;;;;;2.52;74.81;98993.20;2280319;78;21001;-85
2022/02/03 15:36:03;;;;;;;36.80;18.97;;;;;;;2.40;75.00;98996.50;2281028;78;20969;-85
2022/02/03 15:39:07;;;;;;;43.43;19.60;;;;;;;2.31;75.22;98986.17;2280239;78;21068;-84
2022/02/03 15:42:05;;;;;;;36.90;18.93;;;;;;;2.18;75.49;98988.18;2281021;77;21010;-83
2022/02/03 15:45:06;;;;;;;34.27;18.63;;;;;;;2.03;75.64;98982.72;2282821;78;21016;-85
2022/02/03 15:48:25;;;;;;;39.03;20.37;;;;;;;1.89;75.82;98985.92;2282438;78;21022;-84
2022/02/03 16:17:27;;;;;;;57.07;29.40;;;;;;;0.58;78.56;98969.83;2279371;78;20994;-84
2022/02/03 16:20:36;;;;;;;55.23;27.83;;;;;;;0.49;78.87;98969.34;2280548;78;21454;-84
2022/02/03 16:31:58;;;;;;;51.40;24.50;;;;;;;0.33;79.29;98976.15;2258575;78;21406;-84
2022/02/03 16:52:57;;;;;;;40.33;21.60;;;;;;;-0.15;80.57;98956.84;2280616;78;21025;-84
2022/02/03 16:56:00;;;;;;;35.50;21.10;;;;;;;-0.19;80.84;98952.74;2281080;78;21377;-83
2022/02/03 16:59:00;;;;;;;38.87;23.47;;;;;;;-0.26;80.67;98950.23;2281172;78;21064;-84
2022/02/03 17:02:01;;;;;;;43.83;22.67;;;;;;;-0.27;81.13;98949.75;2280914;78;20981;-84
2022/02/03 17:05:01;;;;;;;44.03;23.10;;;;;;;-0.29;81.22;98951.75;2280060;78;21024;-84
2022/02/03 17:08:03;;;;;;;42.13;23.10;;;;;;;-0.29;81.45;98946.22;2281673;78;21000;-84
2022/02/03 17:11:03;;;;;;;48.23;26.67;;;;;;;-0.28;81.54;98944.54;2282245;78;21045;-83
2022/02/03 17:14:04;;;;;;;44.63;25.20;;;;;;;-0.28;81.72;98936.84;2280041;78;20954;-82
2022/02/03 17:17:04;;;;;;;51.73;27.77;;;;;;;-0.27;81.88;98939.50;2281739;78;20930;-81
2022/02/03 17:20:05;;;;;;;56.23;27.93;;;;;;;-0.24;82.10;98933.25;2286250;78;20984;-84
2022/02/03 17:23:08;;;;;;;54.40;29.50;;;;;;;-0.19;82.24;98932.22;2291503;78;21050;-84
2022/02/03 17:26:14;;;;;;;54.17;29.40;;;;;;;-0.13;82.46;98922.30;2289946;78;20975;-84
2022/02/03 17:29:19;;;;;;;54.27;27.60;;;;;;;-0.05;82.62;98925.76;2289199;77;21043;-84
2022/02/03 18:51:20;;;;;;;41.50;17.93;;;;;;;1.32;79.02;98857.50;2222100;79;20959;-85
2022/02/03 18:54:28;;;;;;;38.77;17.77;;;;;;;1.30;78.98;98855.66;2242378;79;21014;-84
2022/02/03 18:57:36;;;;;;;42.00;18.27;;;;;;;1.28;78.86;98853.90;2241536;79;21007;-84
2022/02/03 19:10:30;;;;;;;46.97;17.10;;;;;;;1.35;78.34;98845.19;2242544;79;20975;-83
2022/02/03 20:09:54;;;;;;;39.07;17.70;;;;;;;1.79;76.71;98799.70;2280606;78;21006;-83
2022/02/03 20:12:35;;;;;;;41.80;17.32;;;;;;;1.82;76.47;98804.98;2277380;78;21360;-85
2022/02/03 20:18:46;;;;;;;43.03;17.67;;;;;;;1.85;76.36;98802.55;2243690;79;21054;-85
2022/02/03 20:21:48;;;;;;;47.23;18.50;;;;;;;1.89;76.32;98803.16;2269993;77;21438;-85
2022/02/03 20:24:49;;;;;;;42.07;17.43;;;;;;;1.91;76.33;98797.27;2300739;77;21458;-84
2022/02/03 20:27:54;;;;;;;43.23;17.05;;;;;;;1.95;76.38;98797.41;2280265;77;20959;-84
2022/02/03 20:30:54;;;;;;;40.33;16.63;;;;;;;1.98;76.24;98801.41;2301194;77;20967;-84
2022/02/03 20:33:55;;;;;;;39.67;17.13;;;;;;;2.00;76.15;98798.48;2302702;77;21248;-84
2022/02/03 20:36:59;;;;;;;35.63;17.47;;;;;;;2.02;75.98;98791.72;2302892;77;21303;-83
2022/02/03 20:40:00;;;;;;;36.10;16.52;;;;;;;2.03;76.02;98785.75;2282202;77;20972;-84
2022/02/03 20:43:00;;;;;;;33.60;16.67;;;;;;;2.05;75.89;98778.57;2302919;77;20897;-85
2022/02/03 20:46:01;;;;;;;37.20;17.37;;;;;;;2.08;75.85;98782.57;2303301;77;21049;-84
2022/02/03 20:49:01;;;;;;;32.57;15.47;;;;;;;2.11;75.73;98774.98;2302067;77;20926;-84
2022/02/03 20:52:02;;;;;;;34.87;15.67;;;;;;;2.14;75.72;98774.23;2302396;77;20932;-84
2022/02/03 20:55:02;;;;;;;38.73;16.30;;;;;;;2.18;75.62;98771.86;2302085;77;21425;-84
2022/02/03 21:01:18;;;;;;;36.10;16.53;;;;;;;2.23;75.46;98769.07;2281205;77;21400;-82
2022/02/03 21:04:27;;;;;;;40.03;17.00;;;;;;;2.27;75.41;98766.22;2300989;77;20983;-84
2022/02/03 21:07:16;;;;;;;37.67;16.37;;;;;;;2.31;75.45;98764.25;2298788;77;21049;-85
2022/02/03 21:10:22;;;;;;;37.47;16.67;;;;;;;2.35;75.32;98761.39;2301084;77;21006;-84
2022/02/03 21:13:22;;;;;;;35.37;16.40;;;;;;;2.35;75.29;98754.55;2302419;77;20953;-83
2022/02/03 21:16:29;;;;;;;35.20;15.27;;;;;;;2.35;75.16;98758.41;2302387;77;20976;-84
2022/02/03 21:19:29;;;;;;;38.40;15.57;;;;;;;2.37;75.08;98754.61;2300949;77;20951;-84
2022/02/03 21:22:30;;;;;;;36.23;16.40;;;;;;;2.37;74.97;98750.75;2279966;78;21436;-83
2022/02/03 21:25:43;;;;;;;37.07;16.20;;;;;;;2.35;75.05;98752.38;2279386;78;21009;-84
2022/02/03 21:28:46;;;;;;;37.97;14.87;;;;;;;2.35;75.11;98749.80;2278960;77;21061;-84
2022/02/03 21:31:42;;;;;;;37.47;15.63;;;;;;;2.34;74.99;98748.92;2279208;77;21260;-83
2022/02/03 21:34:43;;;;;;;28.77;14.43;;;;;;;2.30;75.27;98743.17;2281028;78;21352;-82
2022/02/03 21:37:44;;;;;;;30.93;15.17;;;;;;;2.25;75.39;98748.53;2260213;78;20914;-84
2022/02/03 21:43:53;;;;;;;36.30;16.50;;;;;;;2.14;75.72;98734.32;2260817;78;21056;-84
2022/02/03 21:46:54;;;;;;;34.37;15.23;;;;;;;2.13;75.78;98735.13;2281443;78;21001;-83
2022/02/03 21:49:59;;;;;;;37.07;15.33;;;;;;;2.14;75.95;98735.61;2260813;78;21013;-83
2022/02/03 21:56:01;;;;;;;38.37;16.50;;;;;;;2.13;75.79;98732.15;2260916;78;21139;-84
2022/02/03 21:59:08;;;;;;;35.33;16.10;;;;;;;2.12;75.65;98733.38;2281251;78;21597;-84
2022/02/03 22:02:09;;;;;;;41.33;15.87;;;;;;;2.14;75.76;98734.32;2280964;78;21045;-84
2022/02/03 22:05:13;;;;;;;40.20;17.33;;;;;;;2.17;75.63;98737.02;2281972;78;21389;-84
2022/02/03 22:08:13;;;;;;;44.67;17.40;;;;;;;2.23;75.54;98734.30;2281897;78;21061;-84
2022/02/03 22:11:16;;;;;;;39.07;16.00;;;;;;;2.30;75.26;98741.88;2260765;78;21053;-84
2022/02/03 22:14:17;;;;;;;40.00;17.30;;;;;;;2.36;74.91;98737.39;2280512;78;20995;-84
2022/02/03 22:17:17;;;;;;;40.70;17.13;;;;;;;2.44;74.75;98738.59;2259392;78;20997;-83
2022/02/03 22:20:27;;;;;;;42.87;16.77;;;;;;;2.52;74.55;98730.38;2273439;77;20967;-84
2022/02/03 22:46:23;;;;;;;34.00;14.17;;;;;;;3.02;72.38;98723.83;2079228;86;21067;-85
2022/02/03 22:49:16;;;;;;;30.30;12.87;;;;;;;3.03;72.29;98721.72;2079305;86;21358;-84
2022/02/03 22:52:17;;;;;;;28.27;12.53;;;;;;;3.05;71.57;98719.20;2079342;86;20959;-84
2022/02/03 22:55:19;;;;;;;30.83;12.43;;;;;;;3.04;71.64;98720.91;2078837;86;21410;-84
2022/02/03 22:58:57;;;;;;;31.80;13.10;;;;;;;3.06;71.74;98719.27;2079311;86;20956;-85
2022/02/03 23:01:25;;;;;;;28.33;12.80;;;;;;;3.08;71.27;98715.45;2078872;85;21018;-83
2022/02/03 23:04:25;;;;;;;38.20;13.80;;;;;;;3.09;71.72;98712.05;2226781;79;20916;-84
2022/02/03 23:08:31;;;;;;;34.53;15.73;;;;;;;3.10;71.54;98717.27;2249520;79;21319;-84
2022/02/03 23:10:58;;;;;;;35.15;13.22;;;;;;;3.06;71.40;98714.11;2246476;79;20932;-84
2022/02/03 23:17:06;;;;;;;36.83;14.97;;;;;;;2.99;71.93;98715.98;2226045;79;20967;-84
2022/02/03 23:23:08;;;;;;;35.70;15.50;;;;;;;2.98;72.12;98717.20;2261168;78;20961;-85
2022/02/03 23:26:10;;;;;;;35.57;15.10;;;;;;;2.91;72.39;98699.33;2281753;78;20942;-84
2022/02/03 23:29:16;;;;;;;31.87;14.23;;;;;;;2.92;72.81;98708.81;2281906;78;21010;-83
2022/02/03 23:32:17;;;;;;;32.87;15.70;;;;;;;2.89;72.99;98702.25;2281422;78;20986;-85
2022/02/03 23:38:43;;;;;;;40.07;16.03;;;;;;;2.80;74.02;98703.17;2261563;78;20998;-85
2022/02/03 23:42:15;;;;;;;38.60;16.85;;;;;;;2.77;74.49;98700.47;2280180;78;20984;-84
2022/02/03 23:44:56;;;;;;;38.33;15.57;;;;;;;2.72;74.85;98700.70;2260943;78;21021;-83
2022/02/03 23:48:48;;;;;;;32.40;14.40;;;;;;;2.68;75.41;98691.97;2280626;77;20947;-84
